createdAt,value
2018-05-13T00:02:28.212Z,51.40
2018-05-13T00:07:19.687Z,51.50
2018-05-13T00:12:11.945Z,51.60
2018-05-13T00:17:04.204Z,51.60
2018-05-13T00:21:55.698Z,51.60
2018-05-13T00:26:47.211Z,51.30
2018-05-13T00:31:39.156Z,51.40
2018-05-13T00:36:30.713Z,51.40
2018-05-13T00:41:22.215Z,51.70
2018-05-13T00:46:13.743Z,51.80
2018-05-13T00:51:05.282Z,51.90
2018-05-13T00:55:56.786Z,52.00
2018-05-13T01:00:48.276Z,52.30
2018-05-13T01:05:39.777Z,52.30
2018-05-13T01:10:31.292Z,52.30
2018-05-13T01:15:22.762Z,52.60
2018-05-13T01:20:14.255Z,53.30
2018-05-13T01:25:05.826Z,54.30
2018-05-13T01:29:57.319Z,54.20
2018-05-13T01:34:48.832Z,54.10
2018-05-13T01:39:42.109Z,54.40
2018-05-13T01:44:34.330Z,54.80
2018-05-13T01:49:25.937Z,54.70
2018-05-13T01:54:17.442Z,54.60
2018-05-13T01:59:09.732Z,54.80
2018-05-13T02:04:01.228Z,54.70
2018-05-13T02:08:53.476Z,55.30
2018-05-13T02:13:45.738Z,55.80
2018-05-13T02:18:37.262Z,55.80
2018-05-13T02:23:28.771Z,56.10
2018-05-13T02:28:20.279Z,56.70
2018-05-13T02:33:11.781Z,57.00
2018-05-13T02:38:03.290Z,57.00
2018-05-13T02:42:55.906Z,56.80
2018-05-13T02:47:47.413Z,56.70
2018-05-13T02:52:39.098Z,56.70
2018-05-13T02:57:30.627Z,56.90
2018-05-13T03:02:22.117Z,57.60
2018-05-13T03:07:13.597Z,57.10
2018-05-13T03:12:05.093Z,58.40
2018-05-13T03:16:56.644Z,59.40
2018-05-13T03:21:48.149Z,63.20
2018-05-13T03:26:39.668Z,67.10
2018-05-13T03:31:32.268Z,68.90
2018-05-13T03:36:23.795Z,68.80
2018-05-13T03:41:15.266Z,69.70
2018-05-13T03:46:06.826Z,70.20
2018-05-13T03:50:59.059Z,69.90
2018-05-13T03:55:51.291Z,70.00
2018-05-13T04:00:42.789Z,70.00
2018-05-13T04:05:34.308Z,70.40
2018-05-13T04:10:44.430Z,70.70
2018-05-13T04:15:35.957Z,71.40
2018-05-13T04:20:29.115Z,71.20
2018-05-13T04:25:20.628Z,71.10
2018-05-13T04:30:12.140Z,70.40
2018-05-13T04:35:04.391Z,69.70
2018-05-13T04:39:56.629Z,68.70
2018-05-13T04:44:48.850Z,68.30
2018-05-13T04:49:40.330Z,68.80
2018-05-13T04:54:31.815Z,68.20
2018-05-13T04:59:23.487Z,67.60
2018-05-13T05:04:15.751Z,65.80
2018-05-13T05:09:07.245Z,65.70
2018-05-13T05:13:58.760Z,67.30
2018-05-13T05:18:50.256Z,68.00
2018-05-13T05:23:41.744Z,67.00
2018-05-13T05:28:33.312Z,66.30
2018-05-13T05:33:24.754Z,65.60
2018-05-13T05:38:16.238Z,64.90
2018-05-13T05:43:07.744Z,63.60
2018-05-13T05:48:00.189Z,64.30
2018-05-13T05:52:51.741Z,64.90
2018-05-13T05:57:43.253Z,66.20
2018-05-13T06:02:34.767Z,66.60
2018-05-13T06:07:26.983Z,66.30
2018-05-13T06:12:18.555Z,66.20
2018-05-13T06:17:10.011Z,65.00
2018-05-13T06:22:01.482Z,64.80
2018-05-13T06:26:52.988Z,63.20
2018-05-13T06:31:44.512Z,58.80
2018-05-13T06:36:36.017Z,59.30
2018-05-13T06:41:28.285Z,60.90
2018-05-13T06:46:19.786Z,60.80
2018-05-13T06:51:11.358Z,61.80
2018-05-13T06:56:03.104Z,63.90
2018-05-13T07:00:54.600Z,65.40
2018-05-13T07:05:46.815Z,68.30
2018-05-13T07:10:38.341Z,68.30
2018-05-13T07:15:29.832Z,69.40
2018-05-13T07:20:22.061Z,67.90
2018-05-13T07:25:13.567Z,67.80
2018-05-13T07:30:05.101Z,69.50
2018-05-13T07:34:56.615Z,70.40
2018-05-13T07:39:48.149Z,73.00
2018-05-13T07:44:39.673Z,72.90
2018-05-13T07:49:31.210Z,71.60
2018-05-13T07:54:22.705Z,72.60
2018-05-13T07:59:15.021Z,77.50
2018-05-13T08:04:06.576Z,77.30
2018-05-13T08:08:58.097Z,76.60
2018-05-13T08:13:49.796Z,80.50
2018-05-13T08:18:41.321Z,77.60
2018-05-13T08:23:32.855Z,78.90
2018-05-13T08:28:24.398Z,78.10
2018-05-13T08:33:15.899Z,78.10
2018-05-13T08:38:08.193Z,78.60
2018-05-13T08:42:59.755Z,78.50
2018-05-13T08:52:47.248Z,79.80
2018-05-13T08:57:38.731Z,76.80
2018-05-13T09:02:30.948Z,75.70
2018-05-13T09:07:23.269Z,75.00
2018-05-13T09:12:14.757Z,74.80
2018-05-13T09:17:06.251Z,73.10
2018-05-13T09:21:57.752Z,74.00
2018-05-13T09:26:49.342Z,73.20
2018-05-13T09:31:41.607Z,76.20
2018-05-13T09:36:33.122Z,76.10
2018-05-13T09:41:25.367Z,76.80
2018-05-13T09:46:17.606Z,77.90
2018-05-13T09:51:09.076Z,77.30
2018-05-13T09:56:00.582Z,75.80
2018-05-13T10:00:53.807Z,77.00
2018-05-13T10:05:45.323Z,76.80
2018-05-13T10:10:36.827Z,77.20
2018-05-13T10:15:29.072Z,79.60
2018-05-13T10:20:21.329Z,82.00
2018-05-13T10:25:13.601Z,81.40
2018-05-13T10:30:05.157Z,81.30
2018-05-13T10:34:56.668Z,80.20
2018-05-13T10:39:48.122Z,81.20
2018-05-13T10:44:39.611Z,81.10
2018-05-13T10:49:31.900Z,80.80
2018-05-13T10:54:23.457Z,80.70
2018-05-13T10:59:15.021Z,79.60
2018-05-13T11:04:06.536Z,78.50
2018-05-13T11:08:58.037Z,77.60
2018-05-13T11:13:49.572Z,77.20
2018-05-13T11:18:41.121Z,76.90
2018-05-13T11:23:32.861Z,75.90
2018-05-13T11:28:27.064Z,79.80
2018-05-13T11:33:18.562Z,79.50
2018-05-13T11:38:10.639Z,78.90
2018-05-13T11:43:02.167Z,78.20
2018-05-13T11:47:53.644Z,77.60
2018-05-13T11:52:45.147Z,81.40
2018-05-13T11:57:36.653Z,81.00
2018-05-13T12:02:28.361Z,80.40
2018-05-13T12:07:20.692Z,81.60
2018-05-13T12:12:12.413Z,81.50
2018-05-13T12:17:04.649Z,80.90
2018-05-13T12:21:56.213Z,80.60
2018-05-13T12:26:47.722Z,83.00
2018-05-13T12:31:39.221Z,80.60
2018-05-13T12:36:30.787Z,81.30
2018-05-13T12:41:22.296Z,81.00
2018-05-13T12:46:13.855Z,81.10
2018-05-13T12:51:05.386Z,81.70
2018-05-13T12:55:56.996Z,81.00
2018-05-13T13:00:48.482Z,80.50
2018-05-13T13:05:40.007Z,82.20
2018-05-13T13:10:31.539Z,80.90
2018-05-13T13:15:23.053Z,81.40
2018-05-13T13:20:14.566Z,81.10
2018-05-13T13:25:06.049Z,81.10
2018-05-13T13:29:57.715Z,81.70
2018-05-13T13:34:50.005Z,79.60
2018-05-13T13:39:41.490Z,79.60
2018-05-13T13:44:32.971Z,80.10
2018-05-13T13:49:24.518Z,79.80
2018-05-13T13:54:16.064Z,79.60
2018-05-13T13:59:08.295Z,80.40
2018-05-13T14:03:59.819Z,81.20
2018-05-13T14:08:52.137Z,82.20
2018-05-13T14:13:44.377Z,82.50
2018-05-13T14:18:35.959Z,82.50
2018-05-13T14:23:27.435Z,82.00
2018-05-13T14:28:18.960Z,81.60
2018-05-13T14:33:10.498Z,81.10
2018-05-13T14:38:02.794Z,81.10
2018-05-13T14:42:54.289Z,81.60
2018-05-13T14:47:45.934Z,81.30
2018-05-13T14:52:37.446Z,81.70
2018-05-13T14:57:28.968Z,80.90
2018-05-13T15:02:20.482Z,81.40
2018-05-13T15:07:25.065Z,81.80
2018-05-13T15:12:16.528Z,82.40
2018-05-13T15:17:08.776Z,82.00
2018-05-13T15:22:01.683Z,82.90
2018-05-13T15:26:53.154Z,82.80
2018-05-13T15:31:44.676Z,82.10
2018-05-13T15:36:36.169Z,82.20
2018-05-13T15:41:27.681Z,81.70
2018-05-13T15:46:19.951Z,81.10
2018-05-13T15:51:11.445Z,81.00
2018-05-13T15:56:03.716Z,81.90
2018-05-13T16:00:55.981Z,82.90
2018-05-13T16:05:49.053Z,81.90
2018-05-13T16:10:40.511Z,81.90
2018-05-13T16:15:32.018Z,81.20
2018-05-13T16:20:23.511Z,80.90
2018-05-13T16:25:15.008Z,80.30
2018-05-13T16:30:06.557Z,80.80
2018-05-13T16:34:59.074Z,81.20
2018-05-13T16:39:51.333Z,80.30
2018-05-13T16:44:42.838Z,80.20
2018-05-13T16:49:35.067Z,80.90
2018-05-13T16:54:27.327Z,81.30
2018-05-13T16:59:18.796Z,81.10
2018-05-13T17:04:10.270Z,81.80
2018-05-13T17:09:01.896Z,82.00
2018-05-13T17:13:53.391Z,82.80
2018-05-13T17:18:44.979Z,82.70
2018-05-13T17:23:36.531Z,82.50
2018-05-13T17:28:27.996Z,82.10
2018-05-13T17:33:19.911Z,82.50
2018-05-13T17:38:11.421Z,82.80
2018-05-13T17:43:02.937Z,83.00
2018-05-13T17:47:54.533Z,83.10
2018-05-13T17:52:45.971Z,83.10
2018-05-13T17:57:38.099Z,83.10
2018-05-13T18:02:29.599Z,83.70
2018-05-13T18:07:21.835Z,83.90
2018-05-13T18:12:14.033Z,84.00
2018-05-13T18:17:06.261Z,84.10
2018-05-13T18:21:57.771Z,84.10
2018-05-13T18:26:49.289Z,83.70
2018-05-13T18:31:40.845Z,84.10
2018-05-13T18:36:32.356Z,84.00
2018-05-13T18:41:23.901Z,84.10
2018-05-13T18:46:15.630Z,83.50
2018-05-13T18:51:07.593Z,83.70
2018-05-13T18:55:59.491Z,83.60
2018-05-13T19:00:51.865Z,83.30
2018-05-13T19:05:43.728Z,83.20
2018-05-13T19:10:35.393Z,83.60
2018-05-13T19:15:27.015Z,83.70
2018-05-13T19:20:18.661Z,84.00
2018-05-13T19:25:10.584Z,83.50
2018-05-13T19:30:02.629Z,83.60
2018-05-13T19:34:54.267Z,83.70
2018-05-13T19:39:45.930Z,83.80
2018-05-13T19:44:37.645Z,83.80
2018-05-13T19:49:29.271Z,83.70
2018-05-13T19:54:21.427Z,84.10
2018-05-13T19:59:13.183Z,83.40
2018-05-13T20:04:04.942Z,83.60
2018-05-13T20:08:56.751Z,83.20
2018-05-13T20:13:48.340Z,83.10
2018-05-13T20:18:40.684Z,83.00
2018-05-13T20:23:32.985Z,82.90
2018-05-13T20:28:24.630Z,82.90
2018-05-13T20:33:16.162Z,83.00
2018-05-13T20:38:08.205Z,83.10
2018-05-13T20:42:59.713Z,82.90
2018-05-13T20:47:51.268Z,82.80
2018-05-13T20:52:42.764Z,82.80
2018-05-13T20:57:36.127Z,82.60
2018-05-13T21:02:27.616Z,82.50
2018-05-13T21:07:19.133Z,82.60
2018-05-13T21:12:10.650Z,82.10
2018-05-13T21:17:02.148Z,82.20
2018-05-13T21:21:54.420Z,82.50
2018-05-13T21:26:46.025Z,82.40
2018-05-13T21:31:37.522Z,82.40
2018-05-13T21:36:29.002Z,83.00
2018-05-13T21:41:20.498Z,83.80
2018-05-13T21:46:12.370Z,83.80
2018-05-13T21:51:03.871Z,83.60
2018-05-13T21:55:55.405Z,85.00
2018-05-13T22:00:46.929Z,85.50
2018-05-13T22:05:38.407Z,86.40
2018-05-13T22:10:29.905Z,87.50
2018-05-13T22:15:21.436Z,88.20
2018-05-13T22:20:12.960Z,88.80
2018-05-13T22:25:04.470Z,88.90
2018-05-13T22:29:56.708Z,89.60
2018-05-13T22:34:48.186Z,89.50
2018-05-13T22:39:39.706Z,89.50
2018-05-13T22:44:31.206Z,89.50
2018-05-13T22:49:22.778Z,89.60
2018-05-13T22:54:14.333Z,89.20
2018-05-13T22:59:05.855Z,89.10
2018-05-13T23:03:57.334Z,88.80
2018-05-13T23:08:49.575Z,89.30
2018-05-13T23:13:41.088Z,88.60
2018-05-13T23:18:32.687Z,88.30
2018-05-13T23:23:24.123Z,88.50
2018-05-13T23:28:15.635Z,88.30
2018-05-13T23:33:07.952Z,87.70
2018-05-13T23:37:59.492Z,87.60
2018-05-13T23:42:50.983Z,88.10
2018-05-13T23:47:42.514Z,88.40
2018-05-13T23:52:34.024Z,87.90
2018-05-13T23:57:26.280Z,89.00
